Kecel, Hungary
Current Conditions -  °F | °C
As of 10:15 PM on Friday 24 Oct 2014 (Local Time) from LHKE Reporting Station
Haze Haze  
Wind Chill: 37°   Ceiling: 300
Heat Index: 43°   Visibility: 0.93mi
Dew Point: 43°   Wind: 9mph
Humidity: 100%   Direction: 50°NE
Pressure: 30.18"   Gusts: NA
Location:  46.53°N, 19.24°E
Report Text: LHKE 242015Z 05008KT 1500 BR OVC003 06/06 Q1022 NOSIG RMK AMB
Loading
Personal Weather Stations






























Interactive Weather Map
Tropical Storm Tracking
New forecast layout! Learn more

10-Day Weather Forecast

Advertisements
Track Severe Weather on mobile